Time;durP1;ratioP1;P1;durP2;ratioP2;P2;SDS_P1;SDS_P2;PMS_P1;PMS_P2;Temp;Humidity;BMP_temperature;BMP_pressure;BME280_temperature;BME280_humidity;BME280_pressure;Samples;Min_cycle;Max_cycle;Signal;HPM_P1;HPM_P2
2022/10/30 00:00:52;;;;;;;10.75;8.70;;;;;;;15.02;84.60;99458.55;1707215;82;21080;-71
2022/10/30 00:03:18;;;;;;;12.73;8.63;;;;;;;15.03;84.56;99458.82;1701200;82;21431;-70
2022/10/30 00:05:47;;;;;;;11.05;8.05;;;;;;;15.01;84.58;99463.70;1698406;82;21041;-75
2022/10/30 00:08:17;;;;;;;10.50;8.13;;;;;;;14.98;84.63;99469.70;1701870;82;20959;-74
2022/10/30 00:10:45;;;;;;;8.03;6.83;;;;;;;14.96;84.67;99471.90;1691486;83;21262;-71
2022/10/30 00:13:12;;;;;;;11.22;8.08;;;;;;;14.97;84.75;99476.75;1683568;85;20965;-71
2022/10/30 00:15:47;;;;;;;10.93;8.50;;;;;;;14.96;84.70;99467.03;1719605;82;20931;-74
2022/10/30 00:18:14;;;;;;;14.73;8.58;;;;;;;14.96;84.68;99461.06;1704816;82;21042;-69
2022/10/30 00:20:40;;;;;;;10.45;7.83;;;;;;;14.95;84.69;99478.95;1700472;84;21041;-68
2022/10/30 00:23:08;;;;;;;10.03;7.20;;;;;;;14.95;84.65;99468.11;1700696;84;21759;-76
2022/10/30 00:25:36;;;;;;;14.43;8.20;;;;;;;14.91;84.70;99461.66;1695284;83;21040;-77
2022/10/30 00:28:06;;;;;;;8.68;7.30;;;;;;;14.89;84.68;99478.72;1683946;85;21035;-79
2022/10/30 00:30:34;;;;;;;11.78;7.70;;;;;;;14.87;84.67;99474.14;1665852;83;21064;-74
2022/10/30 00:33:02;;;;;;;10.85;7.55;;;;;;;14.88;84.62;99463.02;1708354;83;21060;-68
2022/10/30 00:35:30;;;;;;;10.93;7.70;;;;;;;14.87;84.52;99455.97;1673346;84;21260;-69
2022/10/30 00:37:56;;;;;;;12.43;7.22;;;;;;;14.84;84.46;99449.23;1714005;83;20948;-70
2022/10/30 00:40:25;;;;;;;20.00;7.75;;;;;;;14.82;84.52;99443.28;1722243;83;20959;-69
2022/10/30 00:42:51;;;;;;;15.03;7.35;;;;;;;14.80;84.51;99454.97;1722713;83;21015;-72
2022/10/30 00:45:18;;;;;;;9.45;7.35;;;;;;;14.80;84.47;99444.67;1709815;83;21063;-74
2022/10/30 00:47:53;;;;;;;9.60;7.62;;;;;;;14.78;84.48;99449.01;1690843;84;21886;-75
2022/10/30 00:50:27;;;;;;;13.48;7.78;;;;;;;14.78;84.30;99467.96;1664740;83;21078;-70
2022/10/30 00:53:07;;;;;;;11.12;7.62;;;;;;;14.74;84.21;99464.75;1663619;83;20999;-77
2022/10/30 00:55:38;;;;;;;10.63;7.15;;;;;;;14.70;84.22;99465.87;1679269;84;21026;-80
2022/10/30 00:58:07;;;;;;;9.33;6.85;;;;;;;14.67;84.24;99465.63;1693010;83;21029;-76
2022/10/30 01:00:34;;;;;;;9.88;8.20;;;;;;;14.64;84.36;99454.00;1713824;83;21117;-74
2022/10/30 01:03:01;;;;;;;9.30;6.95;;;;;;;14.63;84.41;99459.14;1689504;84;21048;-73
2022/10/30 01:05:30;;;;;;;11.73;7.12;;;;;;;14.62;84.30;99461.06;1726639;83;21011;-73
2022/10/30 01:07:58;;;;;;;12.73;6.70;;;;;;;14.60;84.29;99459.71;1681282;83;21015;-76
2022/10/30 01:10:24;;;;;;;9.10;6.85;;;;;;;14.57;84.31;99459.75;1711530;82;21009;-74
2022/10/30 01:12:52;;;;;;;13.10;6.78;;;;;;;14.55;84.39;99444.32;1712281;83;21274;-73
2022/10/30 01:15:24;;;;;;;9.00;6.80;;;;;;;14.56;84.36;99475.72;1709429;83;20964;-71
2022/10/30 01:18:13;;;;;;;10.25;7.15;;;;;;;14.54;84.10;99456.77;1667373;84;21051;-70
2022/10/30 01:20:54;;;;;;;11.20;6.17;;;;;;;14.52;84.05;99446.25;1693402;84;21059;-70
2022/10/30 01:23:45;;;;;;;8.13;7.33;;;;;;;14.52;83.81;99473.85;1650933;84;21083;-71
2022/10/30 01:26:35;;;;;;;11.18;6.30;;;;;;;14.49;83.75;99456.27;1711765;83;22243;-73
2022/10/30 01:29:27;;;;;;;9.43;7.00;;;;;;;14.47;83.73;99457.11;1708835;83;20926;-72
2022/10/30 01:32:06;;;;;;;8.58;6.12;;;;;;;14.46;83.76;99451.42;1692203;83;21490;-72
2022/10/30 01:35:07;;;;;;;12.95;7.28;;;;;;;14.46;83.45;99435.19;1690186;83;21075;-71
2022/10/30 01:37:56;;;;;;;9.95;6.53;;;;;;;14.46;83.35;99433.02;1698462;83;20997;-75
2022/10/30 01:40:23;;;;;;;9.43;6.42;;;;;;;14.41;83.26;99424.40;1702594;83;21761;-74
2022/10/30 01:42:56;;;;;;;10.63;6.25;;;;;;;14.38;83.22;99435.25;1685429;83;21022;-73
2022/10/30 01:45:53;;;;;;;7.10;6.40;;;;;;;14.36;83.35;99431.20;1700064;83;21123;-73
2022/10/30 01:49:11;;;;;;;8.03;6.33;;;;;;;14.34;83.33;99437.39;1687702;83;21604;-73
2022/10/30 01:52:07;;;;;;;9.43;6.50;;;;;;;14.34;83.29;99442.26;1681985;84;21544;-71
2022/10/30 01:54:49;;;;;;;14.63;6.70;;;;;;;14.35;83.20;99439.82;1706538;83;21381;-74
2022/10/30 01:57:34;;;;;;;9.95;6.58;;;;;;;14.31;83.15;99448.23;1683566;84;21055;-73
2022/10/30 02:00:11;;;;;;;7.92;5.65;;;;;;;14.27;83.27;99458.55;1695106;83;21011;-78
2022/10/30 02:02:41;;;;;;;8.78;6.47;;;;;;;14.25;83.42;99462.88;1700370;83;21043;-76
2022/10/30 02:05:14;;;;;;;7.60;6.45;;;;;;;14.24;83.52;99451.81;1690136;83;21068;-78
2022/10/30 02:07:42;;;;;;;9.63;6.72;;;;;;;14.26;83.58;99454.22;1699870;83;21295;-72
2022/10/30 02:10:11;;;;;;;10.65;7.12;;;;;;;14.25;83.52;99455.30;1704486;83;21017;-75
2022/10/30 02:12:38;;;;;;;10.45;6.80;;;;;;;14.23;83.37;99451.55;1701187;83;21067;-75
2022/10/30 02:15:05;;;;;;;8.48;5.95;;;;;;;14.20;83.35;99456.14;1693323;83;21035;-77
2022/10/30 02:17:34;;;;;;;6.85;6.15;;;;;;;14.18;83.40;99465.09;1710954;83;21007;-74
2022/10/30 02:20:02;;;;;;;12.55;6.05;;;;;;;14.19;83.41;99469.96;1718517;83;21138;-76
2022/10/30 02:22:30;;;;;;;8.80;6.22;;;;;;;14.17;83.37;99481.59;1710803;83;21000;-74
2022/10/30 02:24:57;;;;;;;7.60;5.55;;;;;;;14.14;83.36;99485.67;1709391;83;21023;-78
2022/10/30 02:27:24;;;;;;;7.12;5.67;;;;;;;14.13;83.39;99472.42;1706880;82;21056;-75
2022/10/30 02:29:50;;;;;;;8.25;6.25;;;;;;;14.10;83.43;99467.00;1720387;83;21107;-75
2022/10/30 02:32:17;;;;;;;8.90;6.55;;;;;;;14.07;83.48;99459.46;1720057;83;21255;-74
2022/10/30 02:34:44;;;;;;;12.10;6.17;;;;;;;14.06;83.53;99466.48;1719888;83;21083;-74
2022/10/30 02:37:13;;;;;;;7.53;6.42;;;;;;;14.05;83.62;99479.23;1698850;83;21039;-76
2022/10/30 02:39:40;;;;;;;8.28;5.28;;;;;;;14.05;83.55;99478.42;1662668;85;21498;-76
2022/10/30 02:42:07;;;;;;;6.97;5.85;;;;;;;14.03;83.58;99471.92;1712733;83;21114;-75
2022/10/30 02:44:34;;;;;;;9.35;5.33;;;;;;;14.00;83.64;99479.79;1723427;83;21155;-75
2022/10/30 02:47:00;;;;;;;8.13;5.15;;;;;;;13.98;83.65;99480.88;1698885;83;21048;-75
2022/10/30 02:49:27;;;;;;;9.38;6.22;;;;;;;13.96;83.72;99479.52;1724155;83;21047;-78
2022/10/30 02:51:54;;;;;;;13.80;6.55;;;;;;;13.95;83.74;99484.14;1723530;83;21007;-79
2022/10/30 02:54:20;;;;;;;11.53;6.55;;;;;;;13.95;83.72;99477.92;1700673;83;21170;-77
2022/10/30 02:56:47;;;;;;;6.47;5.42;;;;;;;13.94;83.69;99493.88;1699197;83;21179;-78
2022/10/30 02:59:14;;;;;;;7.37;5.60;;;;;;;13.92;83.66;99477.91;1699859;84;20979;-78
2022/10/30 03:01:41;;;;;;;12.70;7.28;;;;;;;13.90;83.72;99499.56;1698529;84;21078;-76
2022/10/30 03:04:08;;;;;;;11.65;5.78;;;;;;;13.88;83.78;99493.08;1716910;82;21031;-76
2022/10/30 03:06:36;;;;;;;14.68;6.08;;;;;;;13.85;83.80;99503.64;1696764;83;21477;-76
2022/10/30 03:09:03;;;;;;;15.55;6.42;;;;;;;13.85;83.77;99486.88;1727033;83;21033;-77
2022/10/30 03:11:30;;;;;;;9.83;6.47;;;;;;;13.84;83.79;99505.53;1699699;84;21039;-76
2022/10/30 03:13:58;;;;;;;7.87;5.65;;;;;;;13.81;83.75;99488.48;1669033;83;21020;-75
2022/10/30 03:16:28;;;;;;;9.25;5.58;;;;;;;13.77;83.78;99490.13;1699055;83;20995;-77
2022/10/30 03:18:55;;;;;;;11.50;5.83;;;;;;;13.75;83.92;99494.20;1716028;83;21016;-76
2022/10/30 03:21:24;;;;;;;7.95;5.55;;;;;;;13.71;83.90;99491.25;1697862;83;21674;-76
2022/10/30 03:23:51;;;;;;;9.33;5.22;;;;;;;13.69;83.79;99490.70;1694249;84;21586;-76
2022/10/30 03:26:18;;;;;;;7.05;5.08;;;;;;;13.69;83.65;99479.89;1714847;83;20988;-75
2022/10/30 03:28:53;;;;;;;9.48;5.28;;;;;;;13.68;83.58;99485.56;1700055;83;21095;-74
2022/10/30 03:31:20;;;;;;;7.53;5.20;;;;;;;13.66;83.46;99472.89;1696700;83;21016;-75
2022/10/30 03:33:49;;;;;;;6.30;4.72;;;;;;;13.64;83.53;99489.37;1670252;84;22780;-74
2022/10/30 03:36:15;;;;;;;10.68;5.33;;;;;;;13.62;83.54;99498.84;1702694;83;21047;-75
2022/10/30 03:38:42;;;;;;;7.40;5.87;;;;;;;13.59;83.49;99515.05;1710620;81;21084;-75
2022/10/30 03:41:10;;;;;;;20.15;6.25;;;;;;;13.57;83.41;99506.97;1752935;81;21009;-76
2022/10/30 03:43:38;;;;;;;10.95;4.75;;;;;;;13.54;83.43;99492.91;1746403;81;20999;-74
2022/10/30 03:46:05;;;;;;;7.85;5.58;;;;;;;13.52;83.47;99502.38;1719083;83;21119;-75
2022/10/30 03:48:34;;;;;;;9.58;4.47;;;;;;;13.48;83.59;99534.52;1700842;83;21034;-75
2022/10/30 03:51:01;;;;;;;8.38;4.10;;;;;;;13.47;83.60;99519.41;1681616;84;21065;-75
2022/10/30 03:53:28;;;;;;;8.73;4.55;;;;;;;13.46;83.60;99518.33;1681865;84;20991;-76
2022/10/30 03:56:01;;;;;;;9.65;4.80;;;;;;;13.47;83.42;99514.55;1688199;83;21023;-75
2022/10/30 03:58:29;;;;;;;8.80;4.03;;;;;;;13.46;83.26;99514.27;1710656;83;21181;-75
2022/10/30 04:01:04;;;;;;;13.88;4.90;;;;;;;13.46;83.12;99522.38;1699035;83;20963;-75
2022/10/30 04:03:33;;;;;;;6.30;3.87;;;;;;;13.45;83.03;99515.35;1666485;85;20952;-76
2022/10/30 04:06:00;;;;;;;7.33;4.20;;;;;;;13.44;82.86;99520.48;1673027;83;21639;-77
2022/10/30 04:08:26;;;;;;;9.65;5.00;;;;;;;13.41;82.44;99508.88;1684282;83;21079;-78
2022/10/30 04:10:55;;;;;;;4.58;3.60;;;;;;;13.40;82.37;99505.36;1666334;85;21642;-74
2022/10/30 04:13:24;;;;;;;5.62;4.33;;;;;;;13.38;82.17;99514.27;1666848;85;20920;-75
2022/10/30 04:15:52;;;;;;;10.05;4.62;;;;;;;13.37;82.15;99517.27;1670698;83;21054;-77
2022/10/30 04:18:20;;;;;;;9.30;4.37;;;;;;;13.35;82.13;99498.62;1706539;83;21006;-76
2022/10/30 04:20:49;;;;;;;8.15;4.25;;;;;;;13.33;81.96;99502.12;1678076;83;21067;-76
2022/10/30 04:23:18;;;;;;;5.78;4.42;;;;;;;13.32;81.77;99489.72;1679256;84;21156;-77
2022/10/30 04:25:45;;;;;;;7.08;4.90;;;;;;;13.32;81.73;99491.61;1677976;83;21042;-78
2022/10/30 04:28:12;;;;;;;7.05;4.62;;;;;;;13.31;81.49;99507.00;1707814;83;21087;-77
2022/10/30 04:30:39;;;;;;;7.60;4.28;;;;;;;13.31;81.08;99535.36;1710161;82;21068;-78
2022/10/30 04:33:09;;;;;;;10.18;4.58;;;;;;;13.28;80.50;99534.56;1710970;83;21039;-77
2022/10/30 04:35:37;;;;;;;6.72;3.60;;;;;;;13.28;80.58;99518.89;1709302;83;21505;-80
2022/10/30 04:38:09;;;;;;;4.72;3.58;;;;;;;13.26;80.24;99523.75;1705410;83;21074;-78
2022/10/30 04:40:40;;;;;;;6.15;4.55;;;;;;;13.26;80.00;99523.75;1671812;83;20963;-75
2022/10/30 04:43:07;;;;;;;9.68;3.98;;;;;;;13.26;79.82;99514.29;1662726;83;21528;-76
2022/10/30 04:45:34;;;;;;;8.05;4.83;;;;;;;13.24;79.03;99536.16;1710046;83;21512;-75
2022/10/30 04:48:04;;;;;;;7.12;4.67;;;;;;;13.26;79.04;99528.61;1694714;84;22235;-76
2022/10/30 04:50:32;;;;;;;7.97;4.40;;;;;;;13.24;78.83;99532.11;1678384;84;20951;-75
2022/10/30 04:53:04;;;;;;;5.15;3.60;;;;;;;13.22;78.83;99541.04;1702928;84;21015;-75
2022/10/30 04:55:31;;;;;;;8.50;3.83;;;;;;;13.21;78.63;99544.81;1703402;84;21020;-75
2022/10/30 04:57:58;;;;;;;7.72;4.17;;;;;;;13.22;78.49;99537.53;1712284;82;21067;-74
2022/10/30 05:00:25;;;;;;;4.33;3.92;;;;;;;13.21;78.25;99531.31;1727334;82;21207;-75
2022/10/30 05:02:53;;;;;;;6.22;4.45;;;;;;;13.22;78.25;99544.28;1728689;82;21004;-77
2022/10/30 05:05:20;;;;;;;8.95;4.67;;;;;;;13.22;78.20;99551.03;1678371;84;20987;-77
2022/10/30 05:07:47;;;;;;;6.90;4.15;;;;;;;13.19;78.22;99531.33;1689793;83;21024;-76
2022/10/30 05:10:15;;;;;;;9.23;4.33;;;;;;;13.20;78.54;99531.58;1713068;83;21025;-76
2022/10/30 05:12:42;;;;;;;6.08;3.50;;;;;;;13.18;78.65;99556.17;1690683;83;22031;-76
2022/10/30 05:15:10;;;;;;;6.87;4.40;;;;;;;13.17;78.60;99568.58;1712725;83;21513;-77
2022/10/30 05:17:37;;;;;;;5.37;3.83;;;;;;;13.16;78.43;99546.70;1679222;85;21063;-78
2022/10/30 05:20:05;;;;;;;7.12;3.77;;;;;;;13.17;78.22;99541.58;1702184;82;20989;-76
2022/10/30 05:22:33;;;;;;;5.22;3.60;;;;;;;13.15;77.56;99567.48;1684314;85;21623;-76
2022/10/30 05:24:59;;;;;;;4.65;4.05;;;;;;;13.14;77.34;99563.16;1667994;84;21180;-75
2022/10/30 05:27:26;;;;;;;10.03;3.52;;;;;;;13.12;76.81;99573.98;1691250;83;21043;-73
2022/10/30 05:29:54;;;;;;;6.85;3.83;;;;;;;13.12;76.62;99567.23;1662477;85;22236;-74
2022/10/30 05:32:21;;;;;;;5.22;2.98;;;;;;;13.11;76.30;99582.62;1714055;83;21106;-74
2022/10/30 05:34:49;;;;;;;9.45;3.35;;;;;;;13.14;75.81;99597.48;1695204;82;21061;-74
2022/10/30 05:37:17;;;;;;;6.30;3.65;;;;;;;13.14;75.77;99573.97;1701106;84;21917;-73
2022/10/30 05:39:45;;;;;;;5.90;4.33;;;;;;;13.13;75.29;99576.95;1682263;82;21524;-73
2022/10/30 05:42:13;;;;;;;3.87;2.83;;;;;;;13.13;75.33;99571.02;1682857;83;20999;-72
2022/10/30 05:44:42;;;;;;;6.97;2.85;;;;;;;13.10;74.91;99589.87;1701650;84;21174;-73
2022/10/30 05:47:10;;;;;;;9.30;3.65;;;;;;;13.10;74.86;99595.27;1701237;83;21052;-74
2022/10/30 05:49:37;;;;;;;6.70;3.67;;;;;;;13.11;74.81;99590.72;1709914;83;21103;-73
2022/10/30 05:52:05;;;;;;;4.83;3.72;;;;;;;13.14;74.93;99588.03;1698656;84;21078;-74
2022/10/30 05:54:33;;;;;;;4.83;3.90;;;;;;;13.15;74.78;99599.89;1713057;83;20901;-71
2022/10/30 05:57:02;;;;;;;10.48;3.72;;;;;;;13.15;74.83;99595.03;1716624;82;21491;-74
2022/10/30 05:59:30;;;;;;;6.92;3.67;;;;;;;13.15;74.91;99601.78;1693012;83;21079;-72
2022/10/30 06:01:57;;;;;;;3.62;3.17;;;;;;;13.14;75.11;99601.53;1731015;82;21171;-72
2022/10/30 06:04:25;;;;;;;8.95;2.95;;;;;;;13.13;75.22;99611.52;1713305;83;20937;-72
2022/10/30 06:06:53;;;;;;;6.85;2.92;;;;;;;13.12;75.08;99610.43;1726888;82;21491;-72
2022/10/30 06:09:20;;;;;;;7.37;3.33;;;;;;;13.08;74.15;99617.70;1699357;83;21711;-73
2022/10/30 06:11:49;;;;;;;11.25;5.03;;;;;;;13.08;73.97;99620.40;1692898;82;21017;-74
2022/10/30 06:14:19;;;;;;;9.08;4.45;;;;;;;13.08;73.83;99608.78;1688665;83;21029;-71
2022/10/30 06:16:48;;;;;;;8.83;4.35;;;;;;;13.07;73.56;99607.16;1723258;82;21010;-72
2022/10/30 06:19:16;;;;;;;7.30;3.83;;;;;;;13.06;73.65;99612.28;1684382;83;22349;-71
2022/10/30 06:21:44;;;;;;;5.45;3.45;;;;;;;13.05;73.37;99619.56;1676989;83;21060;-72
2022/10/30 06:24:14;;;;;;;6.25;3.87;;;;;;;13.04;72.81;99603.09;1684652;85;21041;-73
2022/10/30 06:27:02;;;;;;;7.10;2.87;;;;;;;13.04;72.60;99632.00;1671729;85;21874;-73
2022/10/30 06:29:29;;;;;;;6.00;2.42;;;;;;;13.04;72.51;99627.95;1701034;82;21006;-73
2022/10/30 06:31:55;;;;;;;8.90;3.47;;;;;;;13.04;72.29;99640.88;1698751;83;22259;-73
2022/10/30 06:34:24;;;;;;;6.22;2.80;;;;;;;13.05;72.28;99650.61;1688641;84;21037;-72
2022/10/30 06:36:52;;;;;;;3.70;2.40;;;;;;;13.07;72.10;99651.70;1713136;83;21036;-72
2022/10/30 06:39:19;;;;;;;9.88;2.92;;;;;;;13.06;72.26;99652.24;1702465;82;21049;-72
2022/10/30 06:41:53;;;;;;;6.40;2.83;;;;;;;13.04;72.68;99638.19;1697366;83;21112;-74
2022/10/30 06:44:27;;;;;;;6.50;2.77;;;;;;;13.03;73.13;99633.89;1704087;82;21016;-74
2022/10/30 06:46:54;;;;;;;2.80;2.25;;;;;;;12.99;73.52;99631.45;1693682;84;21068;-73
2022/10/30 06:49:21;;;;;;;6.65;2.70;;;;;;;12.97;73.74;99628.20;1716575;83;20997;-74
2022/10/30 06:51:48;;;;;;;7.95;2.60;;;;;;;12.96;73.62;99635.20;1696753;83;21896;-73
2022/10/30 06:54:15;;;;;;;3.67;2.08;;;;;;;12.95;73.51;99641.14;1722695;83;21528;-74
2022/10/30 06:56:42;;;;;;;4.35;2.25;;;;;;;12.92;73.20;99641.68;1664863;85;21047;-73
2022/10/30 06:59:27;;;;;;;6.87;2.95;;;;;;;12.91;73.06;99644.10;1696318;83;21031;-72
2022/10/30 07:01:56;;;;;;;3.80;2.37;;;;;;;12.92;73.08;99636.82;1693785;83;21100;-71
2022/10/30 07:04:24;;;;;;;5.08;2.60;;;;;;;12.92;72.26;99645.73;1654909;86;21175;-73
2022/10/30 07:06:52;;;;;;;4.12;2.55;;;;;;;12.88;71.70;99658.14;1654259;86;21010;-75
2022/10/30 07:09:20;;;;;;;4.55;2.22;;;;;;;12.84;71.56;99642.21;1722902;83;20916;-73
2022/10/30 07:11:49;;;;;;;11.43;2.90;;;;;;;12.82;71.46;99636.25;1671274;85;21668;-75
2022/10/30 07:14:21;;;;;;;5.00;3.03;;;;;;;12.79;71.68;99646.24;1703926;83;20997;-72
2022/10/30 07:16:56;;;;;;;3.50;1.70;;;;;;;12.78;71.29;99646.50;1695406;84;21141;-71
2022/10/30 07:19:24;;;;;;;4.45;2.02;;;;;;;12.75;71.46;99634.89;1699374;83;21565;-74
2022/10/30 07:21:53;;;;;;;3.60;1.52;;;;;;;12.73;71.36;99638.38;1694178;84;22202;-71
2022/10/30 07:24:21;;;;;;;2.37;1.77;;;;;;;12.70;71.26;99645.13;1672989;83;22175;-72
2022/10/30 07:27:06;;;;;;;4.45;2.45;;;;;;;12.71;71.47;99644.03;1722188;83;21550;-71
2022/10/30 07:29:35;;;;;;;4.17;2.12;;;;;;;12.71;71.50;99635.94;1694132;83;21161;-74
2022/10/30 07:32:19;;;;;;;3.90;1.67;;;;;;;12.75;71.64;99642.45;1658895;85;21002;-71
2022/10/30 07:34:50;;;;;;;6.58;2.35;;;;;;;12.77;71.70;99635.42;1698604;83;20929;-71
2022/10/30 07:37:36;;;;;;;5.22;2.10;;;;;;;12.80;71.66;99640.30;1702971;83;29813;-71
2022/10/30 07:40:06;;;;;;;6.40;2.05;;;;;;;12.79;71.62;99631.40;1701584;83;21046;-71
2022/10/30 07:42:57;;;;;;;3.90;1.98;;;;;;;12.79;71.58;99631.40;1704073;83;22457;-71
2022/10/30 07:45:41;;;;;;;5.55;1.90;;;;;;;12.78;71.71;99623.02;1715386;83;21145;-71
2022/10/30 07:48:15;;;;;;;4.03;2.20;;;;;;;12.79;71.65;99618.44;1642333;82;20990;-71
2022/10/30 07:50:47;;;;;;;2.15;1.70;;;;;;;12.77;71.88;99628.67;1697606;84;21023;-70
2022/10/30 07:53:15;;;;;;;5.33;1.85;;;;;;;12.77;71.91;99621.39;1726433;82;21047;-70
2022/10/30 07:55:42;;;;;;;4.40;2.08;;;;;;;12.78;72.00;99623.55;1730998;81;21349;-76
2022/10/30 07:58:27;;;;;;;4.65;1.75;;;;;;;12.80;72.19;99622.77;1729115;82;21008;-73
2022/10/30 08:01:05;;;;;;;6.60;1.75;;;;;;;12.85;72.22;99628.18;1726930;82;21016;-75
2022/10/30 08:03:32;;;;;;;8.18;2.45;;;;;;;12.90;72.06;99622.80;1706243;82;21610;-72
2022/10/30 08:06:03;;;;;;;3.50;2.02;;;;;;;12.93;71.89;99629.00;1720218;81;20987;-72
2022/10/30 08:08:32;;;;;;;3.95;2.02;;;;;;;12.96;71.73;99630.62;1702251;83;21292;-75
2022/10/30 08:11:01;;;;;;;5.05;1.87;;;;;;;12.98;71.58;99631.71;1682807;84;22194;-73
2022/10/30 08:13:28;;;;;;;4.87;2.12;;;;;;;12.99;71.25;99625.24;1710450;82;21047;-74
2022/10/30 08:15:56;;;;;;;4.17;2.75;;;;;;;12.99;71.50;99630.10;1707398;83;21031;-72
2022/10/30 08:18:24;;;;;;;8.35;2.50;;;;;;;13.00;71.49;99643.85;1692804;83;21064;-74
2022/10/30 08:20:51;;;;;;;9.40;2.45;;;;;;;13.01;71.50;99640.62;1704280;83;21074;-75
2022/10/30 08:23:20;;;;;;;4.97;2.80;;;;;;;13.01;71.28;99641.43;1701818;82;21073;-71
2022/10/30 08:25:47;;;;;;;7.53;3.22;;;;;;;13.00;71.24;99654.66;1701634;84;21072;-73
2022/10/30 08:28:14;;;;;;;6.65;2.42;;;;;;;13.00;71.34;99641.15;1711900;82;21557;-73
2022/10/30 08:30:44;;;;;;;6.03;2.35;;;;;;;13.01;71.37;99639.27;1687482;83;21124;-72
2022/10/30 08:33:13;;;;;;;4.08;2.35;;;;;;;13.05;71.42;99639.00;1701468;83;21139;-72
2022/10/30 08:35:58;;;;;;;6.65;2.83;;;;;;;13.07;71.28;99652.52;1639892;85;21572;-74
2022/10/30 08:38:26;;;;;;;6.53;2.10;;;;;;;13.10;70.64;99642.52;1675161;84;20987;-73
2022/10/30 08:40:54;;;;;;;3.92;2.47;;;;;;;13.10;70.79;99657.91;1702724;82;21010;-73
2022/10/30 08:43:24;;;;;;;9.18;2.52;;;;;;;13.09;70.46;99640.89;1684691;83;21099;-72
2022/10/30 08:45:51;;;;;;;9.75;3.17;;;;;;;13.09;70.66;99646.30;1684076;84;21101;-72
2022/10/30 08:48:19;;;;;;;2.90;2.30;;;;;;;13.10;70.44;99661.97;1702483;83;20935;-72
2022/10/30 08:50:46;;;;;;;7.12;3.22;;;;;;;13.09;70.42;99655.75;1724342;83;21035;-72
2022/10/30 08:53:15;;;;;;;6.65;2.90;;;;;;;13.10;70.52;99664.66;1711175;83;21544;-73
2022/10/30 08:55:44;;;;;;;3.95;1.87;;;;;;;13.10;70.44;99657.37;1728560;83;21047;-75
2022/10/30 08:58:12;;;;;;;3.47;1.77;;;;;;;13.10;70.30;99655.21;1735726;81;22165;-72
2022/10/30 09:00:40;;;;;;;4.58;1.85;;;;;;;13.09;70.25;99661.72;1723209;82;21338;-74
2022/10/30 09:03:12;;;;;;;4.67;2.07;;;;;;;13.06;70.05;99672.49;1694995;84;21054;-72
2022/10/30 09:05:58;;;;;;;3.37;2.05;;;;;;;13.04;70.03;99654.38;1681519;83;21561;-74
2022/10/30 09:08:29;;;;;;;2.70;1.72;;;;;;;13.04;70.04;99648.98;1710554;81;21046;-72
2022/10/30 09:10:59;;;;;;;3.00;2.12;;;;;;;13.05;70.24;99644.40;1683999;83;21004;-71
2022/10/30 09:13:26;;;;;;;2.67;1.67;;;;;;;13.06;70.26;99643.33;1670954;85;21038;-71
2022/10/30 09:15:53;;;;;;;8.60;3.50;;;;;;;13.09;70.16;99639.55;1691716;83;21028;-72
2022/10/30 09:18:19;;;;;;;9.28;1.92;;;;;;;13.13;69.84;99648.52;1693474;82;20984;-71
2022/10/30 09:20:49;;;;;;;6.53;2.47;;;;;;;13.16;69.65;99652.83;1690914;84;21662;-74
2022/10/30 09:23:15;;;;;;;5.12;2.47;;;;;;;13.20;69.63;99645.00;1707689;83;21193;-73
2022/10/30 09:25:44;;;;;;;3.27;1.85;;;;;;;13.22;69.20;99645.02;1695045;82;21035;-73
2022/10/30 09:28:18;;;;;;;7.83;3.22;;;;;;;13.23;68.90;99632.33;1714438;83;21015;-72
2022/10/30 09:31:05;;;;;;;5.72;2.42;;;;;;;13.24;69.03;99627.98;1646334;86;22265;-71
2022/10/30 09:33:33;;;;;;;4.10;1.87;;;;;;;13.25;68.96;99649.06;1622574;86;21067;-71
2022/10/30 09:36:18;;;;;;;2.60;1.87;;;;;;;13.25;68.78;99638.25;1688206;83;21228;-71
2022/10/30 09:38:47;;;;;;;4.17;3.08;;;;;;;13.25;68.84;99640.42;1719923;83;21078;-73
2022/10/30 09:41:28;;;;;;;2.45;1.37;;;;;;;13.25;68.95;99647.17;1712096;83;20952;-71
2022/10/30 09:44:09;;;;;;;4.08;2.20;;;;;;;13.23;68.86;99635.84;1719871;83;20913;-70
2022/10/30 09:47:19;;;;;;;3.83;2.22;;;;;;;13.24;69.08;99639.33;1691396;84;21565;-70
2022/10/30 09:50:15;;;;;;;3.92;2.33;;;;;;;13.25;69.24;99626.10;1701680;83;22153;-71
2022/10/30 09:53:12;;;;;;;2.25;1.80;;;;;;;13.26;69.33;99641.23;1715067;83;21024;-71
2022/10/30 09:56:07;;;;;;;4.50;2.12;;;;;;;13.25;69.56;99645.01;1695100;83;21532;-73
2022/10/30 09:59:07;;;;;;;7.55;2.87;;;;;;;13.21;69.58;99643.39;1691134;84;20948;-72
2022/10/30 10:01:47;;;;;;;3.50;1.87;;;;;;;13.21;69.88;99639.88;1691218;84;21060;-73
2022/10/30 10:04:36;;;;;;;2.77;1.87;;;;;;;13.19;69.92;99644.19;1697791;83;21655;-72
2022/10/30 10:07:33;;;;;;;7.20;2.58;;;;;;;13.18;69.89;99631.78;1720036;83;22431;-71
2022/10/30 10:10:18;;;;;;;8.78;2.25;;;;;;;13.20;69.89;99633.66;1677831;84;21000;-71
2022/10/30 10:12:55;;;;;;;4.67;1.75;;;;;;;13.21;69.71;99656.89;1690624;84;21022;-72
2022/10/30 10:15:27;;;;;;;3.35;2.00;;;;;;;13.22;69.47;99629.34;1691190;84;21106;-73
2022/10/30 10:17:54;;;;;;;3.47;1.85;;;;;;;13.22;69.68;99661.22;1666772;83;21109;-72
2022/10/30 10:20:34;;;;;;;4.78;2.37;;;;;;;13.23;69.52;99634.49;1697877;84;20972;-71
2022/10/30 10:23:05;;;;;;;2.92;2.15;;;;;;;13.22;69.63;99629.34;1702121;83;20968;-71
2022/10/30 10:25:33;;;;;;;3.15;1.92;;;;;;;13.22;69.17;99657.70;1727454;83;21614;-70
2022/10/30 10:28:08;;;;;;;4.97;2.20;;;;;;;13.21;69.34;99635.29;1702466;83;21219;-70
2022/10/30 10:30:50;;;;;;;5.30;2.20;;;;;;;13.19;69.27;99638.78;1710992;83;21174;-72
2022/10/30 10:33:40;;;;;;;4.33;2.25;;;;;;;13.19;69.50;99648.80;1711528;83;21053;-72
2022/10/30 10:36:36;;;;;;;3.65;2.55;;;;;;;13.18;69.76;99632.32;1712150;82;21046;-70
2022/10/30 10:39:18;;;;;;;6.05;2.25;;;;;;;13.18;70.01;99621.52;1670711;84;21107;-72
2022/10/30 10:42:23;;;;;;;6.40;2.95;;;;;;;13.19;70.15;99614.48;1692001;83;21008;-71
2022/10/30 10:45:13;;;;;;;5.83;3.30;;;;;;;13.21;70.27;99623.67;1675378;84;21241;-73
2022/10/30 10:48:03;;;;;;;7.00;2.47;;;;;;;13.21;70.42;99613.69;1691629;84;21004;-72
2022/10/30 10:50:36;;;;;;;4.95;2.08;;;;;;;13.24;70.44;99619.08;1691601;84;21003;-72
2022/10/30 10:53:14;;;;;;;6.35;2.95;;;;;;;13.27;70.22;99610.45;1691137;84;21492;-72
2022/10/30 10:55:42;;;;;;;3.95;2.25;;;;;;;13.31;69.54;99608.30;1691344;84;21043;-73
2022/10/30 10:58:29;;;;;;;3.85;2.10;;;;;;;13.36;69.23;99611.00;1698738;83;21175;-72
2022/10/30 11:00:57;;;;;;;5.00;2.25;;;;;;;13.38;68.85;99602.06;1693164;83;21674;-73
2022/10/30 11:03:36;;;;;;;5.42;2.05;;;;;;;13.42;68.36;99605.06;1690511;83;21292;-72
2022/10/30 11:06:19;;;;;;;4.40;2.10;;;;;;;13.44;67.89;99612.34;1709231;83;20936;-72
2022/10/30 11:08:48;;;;;;;7.03;2.20;;;;;;;13.47;67.32;99605.88;1706577;82;21511;-72
2022/10/30 11:11:14;;;;;;;4.83;2.20;;;;;;;13.50;66.60;99625.58;1665505;84;21811;-72
2022/10/30 11:13:42;;;;;;;3.12;2.08;;;;;;;13.54;65.94;99612.34;1691497;84;21499;-72
2022/10/30 11:16:35;;;;;;;4.72;2.10;;;;;;;13.58;65.07;99600.44;1691076;84;20976;-72
2022/10/30 11:19:04;;;;;;;8.63;2.70;;;;;;;13.58;64.62;99594.49;1704569;83;24800;-72
2022/10/30 11:21:37;;;;;;;5.85;2.85;;;;;;;13.61;64.62;99595.86;1693784;83;21060;-72
2022/10/30 11:24:05;;;;;;;;;;;;;;;13.62;64.61;99595.56;1722583;83;21384;-71
2022/10/30 11:26:33;;;;;;;4.33;2.27;;;;;;;13.65;64.80;99596.94;1665338;84;20230;-71
2022/10/30 11:29:13;;;;;;;5.03;2.08;;;;;;;13.67;64.83;99573.16;1691607;83;21453;-71
2022/10/30 11:31:42;;;;;;;6.60;2.10;;;;;;;13.70;64.99;99603.14;1691029;84;21026;-71
2022/10/30 11:34:30;;;;;;;3.60;2.20;;;;;;;13.72;65.13;99582.58;1691029;84;21043;-71
2022/10/30 11:36:57;;;;;;;2.92;1.82;;;;;;;13.72;65.29;99573.94;1690765;84;21163;-71
2022/10/30 11:39:32;;;;;;;4.47;2.00;;;;;;;13.72;65.26;99583.39;1700409;83;20999;-72
2022/10/30 11:42:12;;;;;;;8.28;2.05;;;;;;;13.72;65.18;99586.64;1708305;83;20936;-72
2022/10/30 11:44:50;;;;;;;2.70;1.92;;;;;;;13.72;65.44;99583.39;1711058;83;20932;-71
2022/10/30 11:47:21;;;;;;;2.75;1.67;;;;;;;13.72;64.61;99602.31;1692809;83;21099;-73
2022/10/30 11:49:51;;;;;;;2.95;1.70;;;;;;;13.70;63.83;99596.39;1698865;82;21797;-73
2022/10/30 11:52:20;;;;;;;4.55;1.98;;;;;;;13.70;63.83;99588.28;1705901;82;21571;-71
2022/10/30 11:54:54;;;;;;;4.53;1.82;;;;;;;13.71;63.89;99583.69;1689862;84;21079;-72